Time;durP1;ratioP1;P1;durP2;ratioP2;P2;SDS_P1;SDS_P2;PMS_P1;PMS_P2;Temp;Humidity;BMP_temperature;BMP_pressure;BME280_temperature;BME280_humidity;BME280_pressure;Samples;Min_cycle;Max_cycle;Signal;HPM_P1;HPM_P2
2020/12/15 00:00:40;;;;;;;4.28;2.10;;;9.00;99.90;;;;;;6755290;88;20228;-75
2020/12/15 00:10:41;;;;;;;4.83;2.20;;;8.50;99.90;;;;;;6754644;88;20233;-75
2020/12/15 00:20:42;;;;;;;4.03;2.00;;;8.20;99.90;;;;;;6754854;88;20509;-77
2020/12/15 00:30:42;;;;;;;4.90;2.58;;;8.10;99.90;;;;;;6750295;88;20685;-75
2020/12/15 00:40:43;;;;;;;4.43;2.40;;;8.10;99.90;;;;;;6754863;88;20362;-76
2020/12/15 00:50:43;;;;;;;8.65;2.62;;;7.90;99.90;;;;;;6758610;87;20710;-75
2020/12/15 01:00:44;;;;;;;4.97;2.70;;;7.60;99.90;;;;;;6756369;87;20240;-75
2020/12/15 01:10:44;;;;;;;8.93;2.97;;;7.40;99.90;;;;;;6753547;88;20216;-76
2020/12/15 01:20:46;;;;;;;5.53;2.80;;;7.30;99.90;;;;;;6757559;87;20200;-75
2020/12/15 01:30:46;;;;;;;5.20;3.10;;;7.20;99.90;;;;;;6749104;87;20204;-76
2020/12/15 01:40:49;;;;;;;6.18;3.40;;;7.10;99.90;;;;;;6754530;88;20212;-75
2020/12/15 01:50:49;;;;;;;5.75;3.10;;;7.00;99.90;;;;;;6753328;88;20710;-76
2020/12/15 02:00:50;;;;;;;4.87;2.65;;;7.10;99.90;;;;;;6753859;88;20366;-75
2020/12/15 02:10:50;;;;;;;7.03;3.67;;;7.10;99.90;;;;;;6751486;87;20235;-76
2020/12/15 02:20:51;;;;;;;6.05;3.35;;;7.00;99.90;;;;;;6749297;88;20187;-75
2020/12/15 02:30:51;;;;;;;6.43;4.10;;;6.90;99.90;;;;;;6754069;88;20195;-76
2020/12/15 02:40:52;;;;;;;6.35;3.80;;;6.90;99.90;;;;;;6756173;88;20189;-76
2020/12/15 02:50:52;;;;;;;8.30;4.00;;;6.90;99.90;;;;;;6754121;87;20181;-76
2020/12/15 03:00:53;;;;;;;8.18;4.30;;;6.90;99.90;;;;;;6753000;88;20691;-77
2020/12/15 03:10:54;;;;;;;7.28;4.18;;;6.90;99.90;;;;;;6751085;88;20609;-76
2020/12/15 03:20:55;;;;;;;6.62;3.75;;;6.90;99.90;;;;;;6749734;88;20206;-74
2020/12/15 03:30:56;;;;;;;9.13;4.35;;;7.00;99.90;;;;;;6752027;87;20362;-76
2020/12/15 03:40:56;;;;;;;8.07;4.40;;;7.00;99.90;;;;;;6748313;88;20244;-76
2020/12/15 03:50:56;;;;;;;8.40;3.78;;;7.00;99.90;;;;;;6748057;88;20252;-75
2020/12/15 04:00:57;;;;;;;7.87;4.28;;;7.10;99.90;;;;;;6758261;88;20820;-76
2020/12/15 04:10:58;;;;;;;8.02;4.28;;;7.20;99.90;;;;;;6751944;88;20915;-76
2020/12/15 04:20:58;;;;;;;7.28;4.18;;;7.30;99.90;;;;;;6750789;88;20290;-76
2020/12/15 04:30:59;;;;;;;8.82;3.80;;;7.30;99.90;;;;;;6754578;88;20295;-76
2020/12/15 04:40:59;;;;;;;7.40;3.85;;;7.40;99.90;;;;;;6754386;88;20184;-75
2020/12/15 04:51:00;;;;;;;7.93;4.05;;;7.40;99.90;;;;;;6753048;87;20729;-75
2020/12/15 05:01:02;;;;;;;8.75;4.32;;;7.40;99.90;;;;;;6766272;88;20235;-77
2020/12/15 05:11:03;;;;;;;6.85;4.32;;;7.40;99.90;;;;;;6755618;88;20661;-75
2020/12/15 05:21:16;;;;;;;9.73;4.80;;;7.50;99.90;;;;;;6765557;88;20207;-74
2020/12/15 05:31:17;;;;;;;8.35;5.18;;;7.60;99.90;;;;;;6755990;88;20503;-76
2020/12/15 05:41:17;;;;;;;10.40;5.40;;;7.60;99.90;;;;;;6755376;88;20195;-77
2020/12/15 05:51:18;;;;;;;9.20;4.87;;;7.70;99.90;;;;;;6755075;88;20205;-75
2020/12/15 06:01:18;;;;;;;9.45;5.50;;;7.80;99.90;;;;;;6737702;88;20498;-74
2020/12/15 06:11:20;;;;;;;9.90;5.82;;;7.90;99.90;;;;;;6736152;88;20323;-75
2020/12/15 06:21:21;;;;;;;11.85;6.03;;;7.90;99.90;;;;;;6738160;88;20303;-75
2020/12/15 06:31:22;;;;;;;12.63;6.22;;;8.00;99.90;;;;;;6737444;88;20246;-76
2020/12/15 06:41:24;;;;;;;10.95;6.40;;;8.00;99.90;;;;;;6737610;88;20220;-77
2020/12/15 06:51:32;;;;;;;9.40;5.25;;;8.00;99.90;;;;;;6740226;88;20297;-76
2020/12/15 07:01:33;;;;;;;11.23;6.78;;;8.00;99.90;;;;;;6740112;88;20197;-76
2020/12/15 07:11:34;;;;;;;12.18;7.65;;;8.00;99.90;;;;;;6748250;88;20209;-75
2020/12/15 07:21:34;;;;;;;13.13;6.90;;;7.90;99.90;;;;;;6742876;88;20689;-76
2020/12/15 07:31:35;;;;;;;15.50;8.38;;;7.80;99.90;;;;;;6745113;88;20185;-76
2020/12/15 07:41:39;;;;;;;17.00;9.23;;;7.80;99.90;;;;;;6760316;88;20342;-76
2020/12/15 07:51:40;;;;;;;15.63;8.73;;;7.80;99.90;;;;;;6761606;88;20238;-74
2020/12/15 08:01:41;;;;;;;15.27;9.23;;;7.70;99.90;;;;;;6760666;87;20370;-75
2020/12/15 08:11:49;;;;;;;16.85;9.27;;;7.70;99.90;;;;;;6765771;88;20697;-76
2020/12/15 08:21:52;;;;;;;15.23;9.02;;;7.80;99.90;;;;;;6762174;88;20705;-76
2020/12/15 08:31:53;;;;;;;16.00;9.45;;;7.80;99.90;;;;;;6755599;88;20229;-76
2020/12/15 08:41:55;;;;;;;13.77;8.55;;;7.80;99.90;;;;;;6761999;88;20643;-76
2020/12/15 08:51:56;;;;;;;13.45;7.32;;;7.90;99.90;;;;;;6764908;88;20242;-78
2020/12/15 09:02:00;;;;;;;17.12;8.30;;;7.90;99.90;;;;;;6753854;88;20337;-76
2020/12/15 09:12:01;;;;;;;14.05;7.72;;;7.90;99.90;;;;;;6754918;87;20314;-76
2020/12/15 09:22:06;;;;;;;13.60;7.78;;;8.00;99.90;;;;;;6758433;88;20193;-75
2020/12/15 09:32:06;;;;;;;12.93;8.02;;;8.10;99.90;;;;;;6753983;88;20741;-75
2020/12/15 09:42:07;;;;;;;10.80;7.25;;;8.10;99.90;;;;;;6751015;88;20267;-75
2020/12/15 09:52:07;;;;;;;11.02;6.70;;;8.30;99.90;;;;;;6756622;87;20177;-74
2020/12/15 10:02:08;;;;;;;13.45;6.80;;;8.40;99.90;;;;;;6750989;88;20292;-75
2020/12/15 10:12:08;;;;;;;12.32;7.68;;;8.40;99.90;;;;;;6754351;88;20222;-75
2020/12/15 10:22:09;;;;;;;12.45;7.40;;;8.40;99.90;;;;;;6757850;88;20188;-76
2020/12/15 10:32:09;;;;;;;11.67;7.43;;;8.50;99.90;;;;;;6760523;87;20210;-77
2020/12/15 10:42:10;;;;;;;12.88;7.70;;;8.60;99.90;;;;;;6760887;88;21052;-76
2020/12/15 10:52:11;;;;;;;13.50;8.27;;;8.60;99.90;;;;;;6755803;87;20254;-77
2020/12/15 11:02:13;;;;;;;15.13;8.25;;;8.60;99.90;;;;;;6751140;88;20192;-77
2020/12/15 11:12:13;;;;;;;16.55;8.75;;;8.50;99.90;;;;;;6752327;88;20207;-77
2020/12/15 11:22:14;;;;;;;15.15;8.88;;;8.60;99.90;;;;;;6746326;87;20235;-75
2020/12/15 11:32:14;;;;;;;15.77;8.30;;;8.60;99.90;;;;;;6752246;88;20317;-76
2020/12/15 11:42:15;;;;;;;15.20;9.00;;;8.60;99.90;;;;;;6748731;87;20545;-76
2020/12/15 11:52:16;;;;;;;18.45;9.43;;;8.60;99.90;;;;;;6752035;88;20770;-76
2020/12/15 12:02:17;;;;;;;17.52;9.77;;;8.60;99.90;;;;;;6752797;88;20216;-76
2020/12/15 12:12:17;;;;;;;17.95;9.63;;;8.70;99.90;;;;;;6754109;87;20521;-75
2020/12/15 12:22:18;;;;;;;23.98;11.48;;;8.70;99.90;;;;;;6754692;88;20243;-77
2020/12/15 12:32:18;;;;;;;14.70;8.82;;;8.90;99.90;;;;;;6754807;87;20193;-77
2020/12/15 12:42:19;;;;;;;14.57;8.57;;;9.00;99.90;;;;;;6758394;87;20229;-77
2020/12/15 12:52:19;;;;;;;15.18;8.90;;;9.20;99.90;;;;;;6758924;88;22314;-76
2020/12/15 13:02:20;;;;;;;15.93;9.02;;;9.20;99.90;;;;;;6756019;77;20235;-74
2020/12/15 13:12:20;;;;;;;18.08;9.75;;;9.20;99.90;;;;;;6743292;88;20189;-76
2020/12/15 13:22:24;;;;;;;17.75;9.70;;;9.20;99.90;;;;;;6732320;88;20833;-77
2020/12/15 13:32:25;;;;;;;16.65;9.07;;;9.30;99.90;;;;;;6734039;88;20197;-77
2020/12/15 13:42:25;;;;;;;16.00;9.57;;;9.30;99.90;;;;;;6735862;88;20221;-77
2020/12/15 13:52:27;;;;;;;17.17;9.88;;;9.30;99.90;;;;;;6733370;88;20177;-76
2020/12/15 14:02:27;;;;;;;16.50;9.20;;;9.40;99.90;;;;;;6733337;88;20273;-75
2020/12/15 14:12:28;;;;;;;14.45;8.68;;;9.40;99.90;;;;;;6735027;88;20228;-76
2020/12/15 14:22:28;;;;;;;15.85;8.98;;;9.40;99.90;;;;;;6735132;88;20216;-77
2020/12/15 14:32:29;;;;;;;14.07;8.35;;;9.50;99.90;;;;;;6741838;88;20489;-78
2020/12/15 14:42:29;;;;;;;17.48;9.00;;;9.60;99.90;;;;;;6743142;88;20185;-79
2020/12/15 14:52:36;;;;;;;15.82;9.50;;;9.50;99.90;;;;;;6731505;88;20693;-76
2020/12/15 15:02:37;;;;;;;15.38;9.05;;;9.60;99.90;;;;;;6731289;88;20200;-77
2020/12/15 15:12:37;;;;;;;15.27;8.60;;;9.60;99.90;;;;;;6730094;88;20198;-77
2020/12/15 15:22:38;;;;;;;13.90;8.27;;;9.50;99.90;;;;;;6725168;88;20628;-76
2020/12/15 15:32:38;;;;;;;13.75;8.30;;;9.30;99.90;;;;;;6718101;88;20189;-75
2020/12/15 15:42:39;;;;;;;17.80;9.15;;;9.30;99.90;;;;;;6727754;88;20181;-75
2020/12/15 15:52:39;;;;;;;15.95;9.43;;;9.40;99.90;;;;;;6724862;88;20207;-75
2020/12/15 16:02:40;;;;;;;15.10;8.93;;;9.30;99.90;;;;;;6727972;88;20294;-75
2020/12/15 16:12:40;;;;;;;16.55;9.30;;;9.40;99.90;;;;;;6724843;88;20272;-75
2020/12/15 16:22:41;;;;;;;17.05;10.43;;;9.20;99.90;;;;;;6726904;88;20260;-75
2020/12/15 16:32:45;;;;;;;19.95;10.43;;;9.20;99.90;;;;;;6721312;88;20347;-74
2020/12/15 16:42:46;;;;;;;36.92;11.38;;;9.50;99.90;;;;;;6728805;88;20226;-75
2020/12/15 16:52:46;;;;;;;20.10;9.93;;;9.20;99.90;;;;;;6720102;88;20346;-74
2020/12/15 17:02:47;;;;;;;27.15;11.27;;;9.10;99.90;;;;;;6727079;88;20342;-76
2020/12/15 17:12:47;;;;;;;21.23;11.43;;;9.10;99.90;;;;;;6728425;88;20400;-76
2020/12/15 17:22:48;;;;;;;23.12;13.60;;;9.20;99.90;;;;;;6727361;88;20184;-77
2020/12/15 17:32:49;;;;;;;20.27;12.43;;;9.10;99.90;;;;;;6727529;88;20218;-76
2020/12/15 17:42:49;;;;;;;22.73;12.18;;;9.10;99.90;;;;;;6733365;88;20189;-76
2020/12/15 17:52:52;;;;;;;28.83;15.13;;;8.90;99.90;;;;;;6732274;88;20188;-77
2020/12/15 18:02:54;;;;;;;22.58;13.60;;;9.00;99.90;;;;;;6737887;88;20272;-76
2020/12/15 18:12:55;;;;;;;17.95;10.02;;;8.80;99.90;;;;;;6740825;88;20400;-77
2020/12/15 18:22:55;;;;;;;19.73;11.55;;;8.70;99.90;;;;;;6738505;88;20185;-78
2020/12/15 18:32:56;;;;;;;20.77;10.10;;;8.70;99.90;;;;;;6732340;88;20202;-78
2020/12/15 18:42:57;;;;;;;18.52;9.57;;;8.70;99.90;;;;;;6730238;88;20260;-76
2020/12/15 18:53:00;;;;;;;13.65;8.48;;;8.60;99.90;;;;;;6738065;88;20185;-77
2020/12/15 19:03:01;;;;;;;13.80;8.73;;;8.30;99.90;;;;;;6729451;88;20808;-76
2020/12/15 19:13:01;;;;;;;20.65;11.12;;;8.40;99.90;;;;;;6737535;77;20322;-74
2020/12/15 19:23:02;;;;;;;23.83;12.25;;;8.00;99.90;;;;;;6738486;88;20793;-73
2020/12/15 19:33:03;;;;;;;20.35;12.43;;;8.20;99.90;;;;;;6731661;88;20255;-73
2020/12/15 19:43:04;;;;;;;16.70;10.20;;;7.90;99.90;;;;;;6729572;88;20364;-74
2020/12/15 19:53:04;;;;;;;16.27;9.03;;;7.80;99.90;;;;;;6728244;88;20320;-73
2020/12/15 20:03:05;;;;;;;17.10;10.77;;;7.70;99.90;;;;;;6726193;88;20529;-73
2020/12/15 20:13:05;;;;;;;21.35;11.30;;;7.50;99.90;;;;;;6720860;88;20538;-75
2020/12/15 20:23:06;;;;;;;16.00;8.43;;;7.40;99.90;;;;;;6728894;88;20197;-73
2020/12/15 20:33:06;;;;;;;15.20;9.13;;;7.50;99.90;;;;;;6726629;88;20242;-74
2020/12/15 20:43:07;;;;;;;13.40;7.43;;;7.30;99.90;;;;;;6729385;88;20234;-73
2020/12/15 20:53:07;;;;;;;15.00;8.00;;;7.20;99.90;;;;;;6738629;88;20728;-73
2020/12/15 21:03:08;;;;;;;13.93;8.70;;;6.80;99.90;;;;;;6738028;88;20311;-75
2020/12/15 21:13:08;;;;;;;14.15;8.48;;;6.80;99.90;;;;;;6729252;88;20485;-73
2020/12/15 21:23:09;;;;;;;13.55;7.97;;;6.70;99.90;;;;;;6729459;88;20284;-74
2020/12/15 21:33:09;;;;;;;13.80;8.32;;;6.60;99.90;;;;;;6728343;88;20776;-73
2020/12/15 21:43:10;;;;;;;20.25;10.02;;;6.60;99.90;;;;;;6729535;88;20200;-73
2020/12/15 21:53:11;;;;;;;28.12;10.82;;;6.60;99.90;;;;;;6731789;88;20207;-73
2020/12/15 22:03:11;;;;;;;45.60;11.07;;;6.60;99.90;;;;;;6731864;88;20196;-73
2020/12/15 22:13:12;;;;;;;109.25;10.93;;;6.40;99.90;;;;;;6731299;88;21082;-73
2020/12/15 22:23:12;;;;;;;67.40;9.18;;;6.10;99.90;;;;;;6730689;88;20612;-73
2020/12/15 22:33:13;;;;;;;21.85;9.80;;;5.80;99.90;;;;;;6729388;88;20276;-73
2020/12/15 22:43:13;;;;;;;25.30;8.45;;;5.80;99.90;;;;;;6728561;88;20251;-74
2020/12/15 22:53:14;;;;;;;19.83;8.68;;;5.60;99.90;;;;;;6727954;88;20284;-75
2020/12/15 23:03:15;;;;;;;65.32;10.60;;;5.50;99.90;;;;;;6727910;88;20554;-74
2020/12/15 23:13:16;;;;;;;20.88;8.57;;;5.70;99.90;;;;;;6727509;88;20976;-73
2020/12/15 23:23:16;;;;;;;21.65;9.13;;;5.50;99.90;;;;;;6728333;88;20232;-74
2020/12/15 23:33:17;;;;;;;20.53;9.33;;;5.60;99.90;;;;;;6728630;88;20670;-72
2020/12/15 23:43:17;;;;;;;58.17;12.18;;;5.60;99.90;;;;;;6729383;88;20566;-74
2020/12/15 23:53:18;;;;;;;50.03;12.63;;;5.80;99.90;;;;;;6732566;88;20193;-74
